Time;durP1;ratioP1;P1;durP2;ratioP2;P2;SDS_P1;SDS_P2;PMS_P1;PMS_P2;Temp;Humidity;BMP_temperature;BMP_pressure;BME280_temperature;BME280_humidity;BME280_pressure;Samples;Min_cycle;Max_cycle;Signal;HPM_P1;HPM_P2
2022/06/04 00:00:09;;;;;;;6.25;2.78;;;;;;;15.24;63.71;102097.28;6270072;22;20010;-60
2022/06/04 00:02:38;;;;;;;5.63;2.92;;;;;;;15.19;63.31;102095.66;6269794;22;20000;-59
2022/06/04 00:05:05;;;;;;;11.68;3.75;;;;;;;15.18;63.32;102093.94;6267103;22;20004;-59
2022/06/04 00:07:30;;;;;;;5.85;3.10;;;;;;;15.14;63.29;102094.03;6270137;22;20030;-59
2022/06/04 00:15:33;;;;;;;7.40;3.53;;;;;;;14.87;64.04;102112.59;6269318;22;20023;-60
2022/06/04 00:17:59;;;;;;;8.73;3.60;;;;;;;14.90;64.04;102112.50;6269398;22;20470;-60
2022/06/04 00:20:24;;;;;;;7.32;3.25;;;;;;;14.97;63.86;102107.00;6239253;22;20428;-60
2022/06/04 00:22:50;;;;;;;6.05;2.63;;;;;;;14.94;64.25;102118.59;6269370;22;19999;-60
2022/06/04 00:25:15;;;;;;;7.03;3.05;;;;;;;14.89;64.08;102113.44;6268352;22;20000;-60
2022/06/04 00:27:41;;;;;;;7.88;3.20;;;;;;;14.87;64.03;102112.59;6270254;22;20014;-60
2022/06/04 00:30:07;;;;;;;7.65;3.60;;;;;;;14.88;64.43;102117.00;6268172;22;20003;-59
2022/06/04 00:32:37;;;;;;;5.78;2.97;;;;;;;14.85;64.86;102119.75;6268395;22;20424;-60
2022/06/04 00:35:04;;;;;;;7.60;3.40;;;;;;;14.58;65.95;102109.06;6266854;22;20014;-60
2022/06/04 00:37:34;;;;;;;4.25;2.83;;;;;;;14.66;66.00;102112.31;6270736;22;20042;-61
2022/06/04 00:40:00;;;;;;;5.25;3.20;;;;;;;14.83;65.29;102110.97;6268754;22;20428;-61
2022/06/04 00:42:25;;;;;;;6.85;3.20;;;;;;;14.65;65.93;102107.94;6269766;22;20004;-60
2022/06/04 00:45:28;;;;;;;5.72;3.20;;;;;;;14.55;65.96;102114.44;6269142;22;20664;-61
2022/06/04 00:47:54;;;;;;;7.53;3.15;;;;;;;14.59;65.91;102116.09;6270374;22;20035;-59
2022/06/04 00:50:20;;;;;;;6.25;3.05;;;;;;;14.62;65.87;102108.03;6267107;22;20369;-59
2022/06/04 00:52:47;;;;;;;6.47;3.08;;;;;;;14.70;65.74;102104.28;6242942;22;20015;-60
2022/06/04 00:55:13;;;;;;;10.20;3.30;;;;;;;14.57;66.18;102098.50;6268711;22;20049;-60
2022/06/04 00:57:57;;;;;;;7.28;3.63;;;;;;;14.60;66.01;102099.25;6269193;22;20039;-59
2022/06/04 01:00:28;;;;;;;4.38;3.22;;;;;;;14.66;65.93;102108.81;6268239;22;19999;-61
2022/06/04 01:02:54;;;;;;;7.43;3.50;;;;;;;14.65;66.58;102107.94;6242638;22;20145;-60
2022/06/04 01:05:32;;;;;;;6.35;3.35;;;;;;;14.70;66.35;102109.59;6267633;22;20019;-60
2022/06/04 01:08:00;;;;;;;6.85;3.22;;;;;;;14.63;68.01;102114.22;6268336;22;20008;-59
2022/06/04 01:10:41;;;;;;;5.28;3.53;;;;;;;14.56;69.62;102112.66;6268706;22;19996;-61
2022/06/04 01:13:24;;;;;;;4.20;3.28;;;;;;;14.43;70.96;102112.16;6269971;22;20018;-60
2022/06/04 01:16:15;;;;;;;14.15;3.85;;;;;;;14.36;71.98;102109.69;6269162;22;20484;-60
2022/06/04 01:18:54;;;;;;;6.20;3.65;;;;;;;14.25;72.55;102119.75;6268649;22;20039;-60
2022/06/04 01:21:47;;;;;;;5.35;3.78;;;;;;;14.27;72.93;102129.38;6240635;22;20008;-60
2022/06/04 01:24:47;;;;;;;5.40;3.80;;;;;;;14.42;72.01;102139.59;6269322;22;20537;-61
2022/06/04 01:27:35;;;;;;;6.40;3.90;;;;;;;14.32;72.91;102139.84;6173552;23;20009;-60
2022/06/04 01:30:08;;;;;;;8.32;3.65;;;;;;;14.29;72.41;102132.00;6239333;22;20011;-59
2022/06/04 01:32:50;;;;;;;6.45;4.03;;;;;;;14.34;72.59;102123.91;6241116;22;20003;-60
2022/06/04 01:35:16;;;;;;;9.40;4.38;;;;;;;14.34;72.30;102140.69;6268453;22;20049;-59
2022/06/04 01:37:50;;;;;;;5.10;3.47;;;;;;;14.47;71.26;102145.63;6240833;22;20332;-61
2022/06/04 01:43:07;;;;;;;7.25;4.53;;;;;;;14.44;70.24;102135.97;6267481;22;20439;-61
2022/06/04 01:45:34;;;;;;;7.70;4.20;;;;;;;14.46;69.93;102146.53;6242134;22;20054;-61
2022/06/04 01:48:01;;;;;;;11.77;4.50;;;;;;;14.42;70.12;102159.00;6240223;22;19996;-61
2022/06/04 01:50:32;;;;;;;6.25;4.68;;;;;;;14.21;70.37;102165.81;6267973;22;19999;-60
2022/06/04 01:52:59;;;;;;;9.25;4.70;;;;;;;14.49;69.40;102170.31;6240689;22;20004;-60
2022/06/04 01:55:31;;;;;;;6.40;4.95;;;;;;;14.43;69.42;102170.50;6241857;22;20082;-60
2022/06/04 01:58:03;;;;;;;9.07;4.65;;;;;;;14.42;69.52;102171.41;6268781;22;20004;-63
2022/06/04 02:00:33;;;;;;;6.00;4.07;;;;;;;14.35;69.05;102154.81;6269622;22;20074;-60
2022/06/04 02:03:07;;;;;;;10.77;4.53;;;;;;;14.25;69.30;102156.84;6240499;22;20007;-60
2022/06/04 02:05:41;;;;;;;7.72;4.70;;;;;;;14.25;69.84;102162.16;6268279;22;20045;-61
2022/06/04 02:08:08;;;;;;;7.85;4.88;;;;;;;14.31;69.18;102159.34;6267193;22;20003;-60
2022/06/04 02:10:40;;;;;;;12.30;5.78;;;;;;;14.15;69.96;102162.41;6242120;22;19999;-61
2022/06/04 02:13:08;;;;;;;11.10;5.30;;;;;;;14.05;70.16;102166.22;6239571;22;20336;-61
2022/06/04 02:15:59;;;;;;;9.43;4.63;;;;;;;14.12;70.23;102170.44;6268980;22;20416;-62
2022/06/04 02:18:25;;;;;;;7.70;4.35;;;;;;;14.14;70.13;102165.97;6224880;22;20007;-60
2022/06/04 02:20:50;;;;;;;11.63;5.57;;;;;;;14.10;70.44;102161.69;6268740;22;19999;-62
2022/06/04 02:23:16;;;;;;;8.23;4.85;;;;;;;14.15;69.72;102157.09;6265898;22;20004;-60
2022/06/04 02:25:41;;;;;;;8.45;5.00;;;;;;;13.96;70.59;102166.47;6268923;22;20004;-60
2022/06/04 02:28:07;;;;;;;9.63;5.00;;;;;;;14.05;70.49;102165.38;6241113;22;20073;-61
2022/06/04 02:30:53;;;;;;;8.55;6.00;;;;;;;14.02;70.28;102171.59;6268548;22;20000;-61
2022/06/04 02:33:36;;;;;;;10.77;4.82;;;;;;;13.89;70.82;102171.09;6267116;22;20011;-61
2022/06/04 02:36:25;;;;;;;5.50;4.40;;;;;;;13.92;70.64;102170.13;6240419;22;20082;-60
2022/06/04 02:39:05;;;;;;;5.57;4.82;;;;;;;13.84;70.51;102172.97;6209579;22;20332;-63
2022/06/04 02:41:36;;;;;;;6.97;4.90;;;;;;;13.72;70.96;102175.03;6269314;22;20004;-61
2022/06/04 02:44:09;;;;;;;7.38;4.97;;;;;;;13.75;70.85;102168.78;6239229;22;20328;-61
2022/06/04 02:46:40;;;;;;;7.03;5.43;;;;;;;13.74;71.29;102164.41;6241563;22;20011;-60
2022/06/04 02:49:10;;;;;;;9.43;5.25;;;;;;;13.69;71.26;102164.53;6239058;22;19996;-61
2022/06/04 02:51:46;;;;;;;11.75;5.20;;;;;;;13.66;71.50;102158.44;6240856;22;20007;-60
2022/06/04 02:54:35;;;;;;;14.38;5.85;;;;;;;13.55;72.38;102159.59;6239358;22;20022;-59
2022/06/04 02:57:02;;;;;;;12.55;5.07;;;;;;;13.56;72.51;102150.72;6239951;22;20003;-61
2022/06/04 02:59:28;;;;;;;11.65;5.47;;;;;;;13.49;73.20;102150.00;6239569;22;19999;-60
2022/06/04 03:01:57;;;;;;;7.43;5.20;;;;;;;13.59;72.52;102142.72;6241760;22;20003;-60
2022/06/04 03:04:23;;;;;;;10.52;5.22;;;;;;;13.52;73.09;102133.19;6265603;22;20079;-60
2022/06/04 03:06:48;;;;;;;10.68;5.75;;;;;;;13.50;73.40;102138.53;6266531;22;20038;-60
2022/06/04 03:09:16;;;;;;;9.27;5.57;;;;;;;13.42;73.78;102135.16;6266659;22;20010;-62
2022/06/04 03:11:44;;;;;;;9.70;5.90;;;;;;;13.36;74.20;102135.28;6266967;22;20004;-60
2022/06/04 03:14:10;;;;;;;9.73;6.00;;;;;;;13.25;74.67;102122.34;6267110;22;20015;-62
2022/06/04 03:16:38;;;;;;;11.32;6.10;;;;;;;13.22;75.05;102125.06;6266338;22;20004;-61
2022/06/04 03:19:07;;;;;;;8.30;5.55;;;;;;;13.25;74.42;102130.28;6266352;22;20015;-61
2022/06/04 03:21:32;;;;;;;;;;;;;;;13.33;74.77;102130.09;6267778;22;20003;-61
2022/06/04 03:23:58;;;;;;;10.35;5.85;;;;;;;13.24;74.96;102126.75;6267633;22;19990;-60
2022/06/04 03:26:23;;;;;;;16.58;7.95;;;;;;;13.24;74.83;102136.47;6267585;22;20438;-60
2022/06/04 03:28:48;;;;;;;14.00;6.68;;;;;;;13.27;75.03;102131.09;6268020;22;20000;-60
2022/06/04 03:31:14;;;;;;;9.55;6.38;;;;;;;13.25;75.10;102130.28;6266544;22;20357;-60
2022/06/04 03:33:39;;;;;;;10.35;6.00;;;;;;;13.39;74.54;102133.47;6266707;22;19999;-61
2022/06/04 03:36:07;;;;;;;10.13;5.28;;;;;;;13.46;74.38;102130.66;6265469;22;20053;-59
2022/06/04 03:38:33;;;;;;;10.02;6.00;;;;;;;13.30;75.01;102131.03;6268138;22;20011;-61
2022/06/04 03:40:58;;;;;;;13.10;6.10;;;;;;;13.52;74.32;102136.69;6266641;22;20018;-60
2022/06/04 03:43:24;;;;;;;7.68;5.57;;;;;;;13.63;73.77;102133.78;6267931;22;19999;-60
2022/06/04 03:45:49;;;;;;;9.73;6.25;;;;;;;13.49;74.31;102134.13;6266713;22;20030;-61
2022/06/04 03:48:15;;;;;;;7.78;5.38;;;;;;;13.63;73.83;102141.72;6266394;22;20502;-60
2022/06/04 03:50:40;;;;;;;13.90;6.00;;;;;;;13.43;74.23;102142.22;6266695;22;20053;-61
2022/06/04 03:53:05;;;;;;;11.55;5.60;;;;;;;13.48;74.19;102145.59;6266765;22;20031;-61
2022/06/04 03:55:31;;;;;;;10.60;5.93;;;;;;;13.52;74.43;102149.06;6267279;22;20368;-59
2022/06/04 03:57:56;;;;;;;10.50;5.57;;;;;;;13.61;73.91;102140.03;6267090;22;20004;-60
2022/06/04 04:00:24;;;;;;;11.02;5.95;;;;;;;13.65;73.95;102141.69;6267566;22;20417;-61
2022/06/04 04:02:52;;;;;;;9.73;5.38;;;;;;;13.70;73.64;102133.63;6266620;22;20004;-60
2022/06/04 04:05:21;;;;;;;10.05;5.82;;;;;;;13.59;73.53;102132.13;6266502;22;19996;-60
2022/06/04 04:07:48;;;;;;;8.02;5.75;;;;;;;13.67;73.65;102139.88;6266156;22;20427;-60
2022/06/04 04:10:14;;;;;;;8.88;5.30;;;;;;;13.62;74.13;102136.47;6267224;22;19992;-61
2022/06/04 04:12:40;;;;;;;10.65;5.95;;;;;;;13.63;73.74;102139.06;6266253;22;19999;-60
2022/06/04 04:15:06;;;;;;;12.55;5.72;;;;;;;13.59;73.59;102131.25;6266541;22;20011;-60
2022/06/04 04:17:36;;;;;;;8.65;5.45;;;;;;;13.71;73.52;102135.34;6267241;22;20020;-61
2022/06/04 04:20:03;;;;;;;7.30;5.45;;;;;;;13.83;73.18;102127.09;6265803;22;20059;-62
2022/06/04 04:22:28;;;;;;;9.40;6.00;;;;;;;13.81;73.31;102125.38;6267592;22;20002;-61
2022/06/04 04:24:54;;;;;;;11.65;5.82;;;;;;;13.75;73.18;102121.09;6266659;22;20086;-60
2022/06/04 04:27:19;;;;;;;12.75;5.30;;;;;;;13.66;73.49;102135.47;6267024;22;20014;-59
2022/06/04 04:29:45;;;;;;;11.38;4.93;;;;;;;13.83;73.22;102135.03;6266885;22;20000;-61
2022/06/04 04:32:10;;;;;;;8.00;5.00;;;;;;;13.80;72.92;102129.81;6266247;22;20011;-60
2022/06/04 04:34:36;;;;;;;11.25;5.45;;;;;;;13.79;73.36;102137.78;6265753;22;20132;-60
2022/06/04 04:37:01;;;;;;;8.38;5.45;;;;;;;13.55;73.90;102141.06;6266102;22;20026;-60
2022/06/04 04:39:27;;;;;;;13.35;5.55;;;;;;;13.78;73.62;102144.88;6266935;22;20011;-60
2022/06/04 04:41:52;;;;;;;11.40;5.35;;;;;;;13.94;73.25;102157.72;6266986;22;19988;-60
2022/06/04 04:44:17;;;;;;;12.18;4.63;;;;;;;14.01;72.83;102159.28;6266881;22;20093;-60
2022/06/04 04:46:43;;;;;;;11.13;4.95;;;;;;;13.90;72.41;102147.19;6268737;22;20023;-60
2022/06/04 04:49:08;;;;;;;13.90;4.78;;;;;;;13.92;72.69;102147.16;6266831;22;20027;-62
2022/06/04 04:51:34;;;;;;;10.23;4.97;;;;;;;13.85;71.92;102148.22;6242026;22;20008;-60
2022/06/04 04:54:00;;;;;;;7.30;4.30;;;;;;;14.06;70.87;102143.25;6267939;22;20435;-60
2022/06/04 04:56:26;;;;;;;10.00;4.88;;;;;;;14.13;70.58;102148.34;6268369;22;20007;-61
2022/06/04 04:58:51;;;;;;;9.23;4.78;;;;;;;14.33;70.12;102149.53;6267075;22;20011;-61
2022/06/04 05:01:25;;;;;;;6.93;4.03;;;;;;;14.53;69.65;102153.41;6268030;22;20221;-60
2022/06/04 05:03:51;;;;;;;11.43;4.80;;;;;;;14.37;69.75;102156.53;6267592;22;20036;-62
2022/06/04 05:06:17;;;;;;;7.70;4.28;;;;;;;14.48;69.51;102147.38;6267609;22;20006;-59
2022/06/04 05:08:44;;;;;;;11.55;4.32;;;;;;;14.26;70.10;102146.22;6269207;22;20078;-60
2022/06/04 05:11:12;;;;;;;9.75;4.28;;;;;;;14.26;69.77;102151.50;6268384;22;20069;-60
2022/06/04 05:13:38;;;;;;;8.73;3.85;;;;;;;14.30;69.14;102151.44;6269667;22;20003;-61
2022/06/04 05:16:04;;;;;;;10.80;4.22;;;;;;;14.59;68.48;102149.69;6269412;22;20466;-60
2022/06/04 05:18:29;;;;;;;9.68;4.32;;;;;;;14.32;68.90;102163.72;6268534;22;20012;-60
2022/06/04 05:20:55;;;;;;;7.57;4.32;;;;;;;14.64;68.11;102166.34;6268593;22;20008;-60
2022/06/04 05:23:21;;;;;;;11.82;4.20;;;;;;;14.48;68.51;102164.13;6267748;22;20059;-60
2022/06/04 05:25:47;;;;;;;6.45;4.00;;;;;;;14.52;68.29;102160.50;6268359;22;20000;-61
2022/06/04 05:28:14;;;;;;;10.15;4.07;;;;;;;14.45;68.88;102161.56;6267255;22;20007;-61
2022/06/04 05:30:39;;;;;;;10.50;3.90;;;;;;;14.53;68.37;102171.97;6268679;22;20436;-60
2022/06/04 05:33:04;;;;;;;11.35;4.28;;;;;;;14.46;68.73;102168.63;6238932;22;20010;-61
2022/06/04 05:35:30;;;;;;;11.23;3.88;;;;;;;14.80;67.99;102173.84;6269476;22;20375;-61
2022/06/04 05:37:55;;;;;;;12.07;4.43;;;;;;;14.80;67.94;102174.75;6267122;22;20449;-61
2022/06/04 05:40:20;;;;;;;10.75;4.55;;;;;;;14.94;67.64;102160.19;6268980;22;20521;-61
2022/06/04 05:42:45;;;;;;;9.23;3.97;;;;;;;14.93;68.01;102161.09;6268037;22;20412;-61
2022/06/04 05:45:11;;;;;;;10.07;4.40;;;;;;;14.98;67.73;102156.50;6268316;22;20436;-61
2022/06/04 05:47:36;;;;;;;5.85;4.10;;;;;;;15.12;67.01;102161.38;6267963;22;20416;-60
2022/06/04 05:50:02;;;;;;;8.98;4.20;;;;;;;15.11;66.81;102162.31;6266739;22;20428;-62
2022/06/04 05:52:27;;;;;;;12.57;4.72;;;;;;;14.78;67.75;102160.66;6268472;22;20328;-61
2022/06/04 05:54:53;;;;;;;7.93;3.92;;;;;;;15.08;67.19;102155.28;6266911;22;20000;-61
2022/06/04 05:57:18;;;;;;;13.50;4.00;;;;;;;15.13;67.12;102141.88;6266826;22;19999;-60
2022/06/04 05:59:43;;;;;;;9.35;3.97;;;;;;;15.02;67.02;102152.88;6267840;22;20471;-60
2022/06/04 06:02:10;;;;;;;14.95;5.00;;;;;;;14.88;68.11;102148.84;6267962;22;20000;-61
2022/06/04 06:04:36;;;;;;;11.93;4.50;;;;;;;14.87;68.05;102157.72;6239299;22;20004;-61
2022/06/04 06:07:01;;;;;;;8.88;4.15;;;;;;;15.37;67.35;102165.88;6267987;22;20004;-62
2022/06/04 06:09:27;;;;;;;9.73;4.05;;;;;;;15.55;66.97;102167.06;6267868;22;20003;-59
2022/06/04 06:11:53;;;;;;;9.00;3.97;;;;;;;15.77;65.79;102168.97;6268194;22;20046;-61
2022/06/04 06:14:19;;;;;;;12.35;4.40;;;;;;;15.64;66.48;102176.50;6266650;22;20007;-61
2022/06/04 06:16:46;;;;;;;7.90;4.03;;;;;;;15.76;65.89;102175.22;6268246;22;20007;-60
2022/06/04 06:19:14;;;;;;;10.13;3.90;;;;;;;16.01;64.96;102175.25;6265066;22;20054;-60
2022/06/04 06:21:40;;;;;;;12.07;4.70;;;;;;;15.90;65.41;102177.41;6268235;22;20007;-60
2022/06/04 06:24:08;;;;;;;9.13;4.80;;;;;;;15.92;65.26;102180.88;6268490;22;20420;-62
2022/06/04 06:26:39;;;;;;;9.13;4.28;;;;;;;15.87;65.97;102191.66;6268225;22;20383;-61
2022/06/04 06:29:04;;;;;;;5.53;3.78;;;;;;;15.97;65.53;102191.38;6241232;22;20011;-60
2022/06/04 06:31:31;;;;;;;8.38;4.53;;;;;;;15.72;65.79;102189.53;6239630;22;20003;-60
2022/06/04 06:33:56;;;;;;;7.80;4.13;;;;;;;15.90;65.47;102182.72;6239025;22;20007;-60
2022/06/04 06:36:22;;;;;;;10.30;4.53;;;;;;;16.03;65.47;102183.19;6268018;22;20305;-60
2022/06/04 06:38:48;;;;;;;10.13;4.63;;;;;;;15.87;65.65;102183.69;6267160;22;20037;-59
2022/06/04 06:41:15;;;;;;;15.35;4.82;;;;;;;15.73;66.46;102193.91;6265684;22;20086;-60
2022/06/04 06:43:47;;;;;;;9.38;4.43;;;;;;;15.90;65.60;102190.69;6268185;22;20003;-61
2022/06/04 06:46:25;;;;;;;11.43;4.15;;;;;;;16.17;64.70;102202.16;6266544;22;20027;-59
2022/06/04 06:48:53;;;;;;;14.50;4.97;;;;;;;15.95;65.60;102203.84;6267659;22;20320;-61
2022/06/04 06:51:31;;;;;;;10.40;4.53;;;;;;;16.08;65.30;102206.94;6266405;22;20008;-61
2022/06/04 06:53:57;;;;;;;8.18;4.78;;;;;;;16.17;65.26;102212.78;6268581;22;20454;-61
2022/06/04 06:56:26;;;;;;;9.50;4.63;;;;;;;16.10;65.11;102218.41;6266201;22;20000;-60
2022/06/04 06:58:52;;;;;;;11.52;4.40;;;;;;;16.20;64.58;102224.25;6267988;22;20027;-60
2022/06/04 07:01:18;;;;;;;10.63;3.95;;;;;;;16.29;64.34;102231.91;6265151;22;20456;-60
2022/06/04 07:03:43;;;;;;;12.68;4.65;;;;;;;16.13;65.27;102229.78;6266963;22;20035;-60
2022/06/04 07:06:11;;;;;;;11.00;5.03;;;;;;;16.42;63.91;102235.88;6266643;22;20058;-60
2022/06/04 07:08:38;;;;;;;13.82;5.35;;;;;;;16.21;65.32;102229.53;6267910;22;20006;-60
2022/06/04 07:11:04;;;;;;;11.98;4.43;;;;;;;16.35;64.52;102226.38;6266581;22;20011;-61
2022/06/04 07:13:30;;;;;;;12.90;4.82;;;;;;;16.50;64.13;102229.38;6268001;22;20000;-61
2022/06/04 07:15:55;;;;;;;12.38;5.18;;;;;;;16.30;65.53;102228.31;6267231;22;20017;-61
2022/06/04 07:18:21;;;;;;;12.00;4.53;;;;;;;16.29;65.04;102237.22;6265764;22;20045;-62
2022/06/04 07:20:46;;;;;;;16.45;4.80;;;;;;;16.54;64.39;102231.88;6267856;22;20313;-61
2022/06/04 07:23:12;;;;;;;12.45;4.93;;;;;;;16.44;64.69;102224.28;6266154;22;20049;-61
2022/06/04 07:25:40;;;;;;;10.90;4.30;;;;;;;16.26;64.82;102222.22;6267350;22;20000;-61
2022/06/04 07:28:05;;;;;;;12.85;4.60;;;;;;;16.41;65.09;102223.47;6266246;22;19999;-60
2022/06/04 07:30:30;;;;;;;8.35;4.20;;;;;;;16.36;65.03;102225.44;6267786;22;20500;-61
2022/06/04 07:32:56;;;;;;;10.10;4.47;;;;;;;16.29;64.90;102227.44;6265093;22;20049;-60
2022/06/04 07:35:21;;;;;;;12.82;4.75;;;;;;;16.44;64.72;102222.50;6267419;22;20003;-59
2022/06/04 07:37:46;;;;;;;11.38;4.40;;;;;;;16.70;63.74;102225.13;6266219;22;20008;-61
2022/06/04 07:40:12;;;;;;;12.10;4.55;;;;;;;16.89;63.53;102231.47;6267515;22;20046;-60
2022/06/04 07:42:38;;;;;;;9.23;4.15;;;;;;;17.00;62.28;102224.84;6266202;22;20000;-60
2022/06/04 07:45:05;;;;;;;11.32;3.78;;;;;;;16.99;62.98;102234.66;6267472;22;20740;-60
2022/06/04 07:47:31;;;;;;;8.80;4.20;;;;;;;16.95;62.69;102227.72;6266752;22;20050;-61
2022/06/04 07:49:57;;;;;;;6.80;3.38;;;;;;;17.36;61.93;102219.03;6267073;22;19995;-60
2022/06/04 07:52:23;;;;;;;7.20;3.95;;;;;;;17.20;62.09;102218.78;6239639;22;20830;-60
2022/06/04 07:54:48;;;;;;;4.97;3.65;;;;;;;17.11;62.61;102208.50;6266493;22;20003;-62
2022/06/04 07:57:13;;;;;;;9.20;3.75;;;;;;;16.91;63.09;102210.09;6266418;22;20424;-62
2022/06/04 07:59:39;;;;;;;9.07;4.47;;;;;;;16.99;63.00;102201.81;6266319;22;20000;-61
2022/06/04 08:02:04;;;;;;;9.02;4.05;;;;;;;17.10;62.89;102202.28;6266907;22;19995;-60
2022/06/04 08:04:30;;;;;;;6.55;3.78;;;;;;;17.07;63.13;102213.09;6265907;22;20026;-61
2022/06/04 08:06:56;;;;;;;9.50;4.05;;;;;;;16.93;62.88;102208.25;6266801;22;20069;-61
2022/06/04 08:09:21;;;;;;;6.30;3.90;;;;;;;17.04;62.61;102211.34;6239464;22;20007;-61
2022/06/04 08:11:47;;;;;;;8.55;3.92;;;;;;;17.16;61.99;102227.81;6266431;22;20336;-62
2022/06/04 08:14:14;;;;;;;8.07;3.50;;;;;;;17.04;61.83;102222.00;6267284;22;20085;-61
2022/06/04 08:16:44;;;;;;;5.13;3.42;;;;;;;17.20;61.89;102228.56;6266367;22;20000;-63
2022/06/04 08:19:10;;;;;;;7.75;3.63;;;;;;;17.36;61.24;102229.69;6240287;22;20031;-61
2022/06/04 08:21:37;;;;;;;8.88;3.88;;;;;;;17.29;62.46;102228.19;6270042;22;20000;-61
2022/06/04 08:24:02;;;;;;;10.55;4.00;;;;;;;17.33;62.37;102227.13;6269420;22;20306;-61
2022/06/04 08:26:28;;;;;;;9.77;4.05;;;;;;;16.89;62.83;102219.97;6268976;22;20087;-62
2022/06/04 08:28:53;;;;;;;12.00;4.05;;;;;;;16.83;63.36;102210.44;6265830;22;20078;-60
2022/06/04 08:31:19;;;;;;;11.85;4.15;;;;;;;16.97;63.81;102219.63;6267648;22;20083;-60
2022/06/04 08:33:44;;;;;;;7.28;4.05;;;;;;;17.18;62.69;102220.63;6266951;22;20020;-59
2022/06/04 08:36:12;;;;;;;7.57;3.95;;;;;;;17.39;62.71;102226.88;6268253;22;20478;-61
2022/06/04 08:38:38;;;;;;;10.18;3.83;;;;;;;17.57;62.34;102235.06;6268490;22;20344;-61
2022/06/04 08:41:05;;;;;;;8.45;3.80;;;;;;;17.72;61.18;102240.66;6267079;22;19999;-60
2022/06/04 08:43:42;;;;;;;7.97;3.80;;;;;;;17.62;61.89;102240.19;6270366;22;20049;-60
2022/06/04 08:46:29;;;;;;;7.30;4.13;;;;;;;17.53;62.38;102246.78;6268120;22;20012;-60
2022/06/04 08:48:56;;;;;;;9.55;4.55;;;;;;;17.74;61.57;102244.16;6240973;22;20007;-61
2022/06/04 08:51:26;;;;;;;9.00;4.32;;;;;;;17.45;63.33;102244.41;6240632;22;20008;-61
2022/06/04 08:53:53;;;;;;;11.20;4.80;;;;;;;17.92;62.11;102248.72;6241835;22;20007;-62
2022/06/04 08:59:35;;;;;;;7.13;4.15;;;;;;;18.21;62.01;102245.72;6268171;22;20053;-60
2022/06/04 09:02:02;;;;;;;6.93;3.58;;;;;;;18.59;60.96;102252.94;6240934;22;20035;-61
2022/06/04 09:04:39;;;;;;;7.53;4.10;;;;;;;18.63;61.55;102251.88;6267826;22;20061;-61
2022/06/04 09:07:22;;;;;;;10.02;4.32;;;;;;;18.23;62.18;102249.19;6267145;22;20000;-60
2022/06/04 09:10:03;;;;;;;6.70;4.30;;;;;;;18.38;61.90;102257.44;6242252;22;20000;-60
2022/06/04 09:12:35;;;;;;;13.10;4.53;;;;;;;18.37;61.53;102243.25;6267891;22;20004;-60
2022/06/04 09:15:12;;;;;;;8.13;4.70;;;;;;;18.35;62.16;102250.44;6269225;22;20065;-60
2022/06/04 09:17:44;;;;;;;9.07;4.22;;;;;;;18.17;61.69;102249.47;6266283;22;20023;-61
2022/06/04 09:20:28;;;;;;;8.65;4.57;;;;;;;18.01;62.51;102257.25;6241905;22;20004;-61
2022/06/04 09:22:58;;;;;;;12.40;4.90;;;;;;;17.75;63.62;102251.19;6267570;22;20281;-60
2022/06/04 09:25:28;;;;;;;8.00;4.35;;;;;;;17.97;63.40;102245.81;6241295;22;20466;-61
2022/06/04 09:28:13;;;;;;;8.95;4.45;;;;;;;17.85;63.43;102246.38;6214950;22;20007;-61
2022/06/04 09:30:49;;;;;;;10.23;4.63;;;;;;;18.04;63.34;102255.31;6241422;22;20004;-61
2022/06/04 09:33:39;;;;;;;10.80;4.53;;;;;;;18.37;62.21;102245.94;6238788;22;20163;-60
2022/06/04 09:36:10;;;;;;;10.77;3.85;;;;;;;18.62;62.26;102247.47;6267904;22;20505;-60
2022/06/04 09:38:35;;;;;;;8.52;3.92;;;;;;;19.21;60.39;102245.69;6267662;22;20038;-61
2022/06/04 09:41:18;;;;;;;7.32;4.60;;;;;;;18.75;60.53;102238.91;6268484;22;20004;-60
2022/06/04 09:43:56;;;;;;;8.27;4.60;;;;;;;18.84;60.66;102249.13;6267159;22;20000;-61
2022/06/04 09:46:24;;;;;;;6.93;4.40;;;;;;;19.35;59.09;102245.03;6241007;22;20452;-61
2022/06/04 09:48:51;;;;;;;7.65;4.57;;;;;;;19.24;59.20;102242.88;6266093;22;20102;-59
2022/06/04 09:51:23;;;;;;;7.22;4.60;;;;;;;19.52;58.63;102253.09;6240634;22;20004;-61
2022/06/04 09:53:51;;;;;;;7.00;4.30;;;;;;;19.58;58.46;102251.91;6237687;22;20003;-61
2022/06/04 09:56:25;;;;;;;9.35;4.35;;;;;;;19.64;58.37;102246.25;6240164;22;20440;-61
2022/06/04 09:58:50;;;;;;;6.60;4.45;;;;;;;19.85;58.08;102238.09;6268014;22;20015;-61
2022/06/04 10:01:16;;;;;;;8.13;4.40;;;;;;;19.92;57.59;102242.16;6267676;22;20004;-62
2022/06/04 10:03:42;;;;;;;6.30;4.07;;;;;;;19.67;57.68;102243.44;6267324;22;20431;-61
2022/06/04 10:06:12;;;;;;;9.15;4.47;;;;;;;19.57;58.37;102243.00;6268327;22;20000;-63
2022/06/04 10:11:53;;;;;;;9.13;4.97;;;;;;;19.35;58.53;102245.03;6245232;22;20018;-61
2022/06/04 10:14:39;;;;;;;8.70;4.72;;;;;;;19.53;58.21;102243.25;6267968;22;20007;-60
2022/06/04 10:17:34;;;;;;;10.30;5.13;;;;;;;19.69;57.69;102244.19;6241298;22;20004;-62
2022/06/04 10:20:00;;;;;;;9.80;4.10;;;;;;;19.77;57.61;102250.97;6255776;22;20008;-61
2022/06/04 10:22:26;;;;;;;9.57;4.93;;;;;;;19.75;57.88;102245.69;6241514;22;20069;-61
2022/06/04 10:24:57;;;;;;;7.97;4.30;;;;;;;19.76;56.16;102255.47;6268297;22;20440;-62
2022/06/04 10:27:38;;;;;;;9.05;5.07;;;;;;;19.51;57.57;102245.13;6240562;22;20019;-61
2022/06/04 10:30:12;;;;;;;12.18;4.60;;;;;;;19.43;58.12;102246.41;6267889;22;20091;-60
2022/06/04 10:32:59;;;;;;;5.63;4.65;;;;;;;19.26;58.51;102244.53;6267316;22;20003;-60
2022/06/04 10:35:49;;;;;;;7.43;4.80;;;;;;;19.30;59.03;102247.94;6268162;22;20049;-61
2022/06/04 10:38:20;;;;;;;10.57;4.95;;;;;;;19.03;59.64;102243.78;6268209;22;20035;-61
2022/06/04 10:40:49;;;;;;;11.45;4.72;;;;;;;19.01;60.11;102245.69;6268059;22;20006;-61
2022/06/04 10:43:26;;;;;;;11.70;5.53;;;;;;;19.04;59.83;102233.97;6240553;22;20087;-61
2022/06/04 10:46:08;;;;;;;11.05;5.13;;;;;;;18.87;61.13;102243.66;6241156;22;20459;-62
2022/06/04 10:48:54;;;;;;;7.20;4.57;;;;;;;18.92;60.33;102240.78;6267533;22;20330;-61
2022/06/04 10:51:44;;;;;;;7.88;5.00;;;;;;;18.83;60.61;102244.75;6267546;22;20007;-60
2022/06/04 10:54:09;;;;;;;8.48;5.03;;;;;;;18.71;61.78;102243.50;6266977;22;20014;-61
2022/06/04 10:56:40;;;;;;;7.72;5.22;;;;;;;18.86;60.72;102239.25;6268132;22;20000;-61
2022/06/04 10:59:41;;;;;;;7.63;5.55;;;;;;;18.41;62.41;102239.50;6268060;22;20011;-62
2022/06/04 11:02:28;;;;;;;7.95;5.63;;;;;;;18.86;61.38;102243.72;6214478;22;20014;-61
2022/06/04 11:05:24;;;;;;;12.07;5.65;;;;;;;18.64;61.58;102242.06;6241583;22;20420;-60
2022/06/04 11:07:54;;;;;;;11.55;5.65;;;;;;;18.74;61.84;102239.81;6237840;22;20054;-60
2022/06/04 11:10:28;;;;;;;12.60;5.63;;;;;;;18.59;62.03;102242.28;6240471;22;20070;-59
2022/06/04 11:13:04;;;;;;;12.68;5.72;;;;;;;18.71;62.25;102243.50;6266602;22;20007;-61
2022/06/04 11:15:35;;;;;;;11.45;5.45;;;;;;;18.62;62.46;102244.81;6267492;22;20018;-60
2022/06/04 11:18:05;;;;;;;9.38;6.03;;;;;;;18.63;63.14;102238.53;6239464;22;20004;-61
2022/06/04 11:20:36;;;;;;;8.13;5.75;;;;;;;18.43;64.49;102237.63;6267156;22;20010;-60
2022/06/04 11:23:24;;;;;;;13.82;5.65;;;;;;;18.36;64.71;102241.50;6267063;22;20072;-62
2022/06/04 11:25:51;;;;;;;9.20;6.22;;;;;;;18.36;64.28;102238.00;6267240;22;20034;-60
2022/06/04 11:28:23;;;;;;;13.80;6.15;;;;;;;18.39;65.38;102245.84;6266562;22;19995;-59
2022/06/04 11:31:18;;;;;;;9.38;6.32;;;;;;;18.50;65.21;102242.69;6240680;22;20008;-59
2022/06/04 11:34:07;;;;;;;14.70;6.63;;;;;;;18.87;64.44;102245.47;6184369;22;20529;-60
2022/06/04 11:36:56;;;;;;;12.52;6.05;;;;;;;18.91;64.33;102247.91;6267570;22;20065;-61
2022/06/04 11:39:24;;;;;;;;;;;;;;;18.88;64.12;102256.09;6266053;22;20126;-61
2022/06/04 11:42:00;;;;;;;10.60;6.50;;;;;;;19.08;63.85;102248.94;6268102;22;19907;-60
2022/06/04 11:44:56;;;;;;;10.57;5.85;;;;;;;18.95;63.72;102253.97;6239735;22;20003;-60
2022/06/04 11:47:48;;;;;;;7.20;5.43;;;;;;;18.92;63.87;102260.34;6265351;22;20020;-61
2022/06/04 11:50:28;;;;;;;14.27;6.05;;;;;;;18.85;64.07;102260.69;6267399;22;20009;-59